createdAt,value
2022-09-21T00:01:24.247Z,10.30
2022-09-21T00:03:54.808Z,10.30
2022-09-21T00:06:24.354Z,10.30
2022-09-21T00:08:53.158Z,10.30
2022-09-21T00:11:24.949Z,10.30
2022-09-21T00:13:56.096Z,10.30
2022-09-21T00:16:24.987Z,10.30
2022-09-21T00:18:53.593Z,10.20
2022-09-21T00:21:22.039Z,10.20
2022-09-21T00:23:50.245Z,10.20
2022-09-21T00:26:20.837Z,10.20
2022-09-21T00:28:54.013Z,10.30
2022-09-21T00:31:24.458Z,10.30
2022-09-21T00:33:53.103Z,10.30
2022-09-21T00:36:24.629Z,10.30
2022-09-21T00:38:54.359Z,10.30
2022-09-21T00:41:23.119Z,10.40
2022-09-21T00:44:29.178Z,10.40
2022-09-21T00:47:02.674Z,10.40
2022-09-21T00:49:31.793Z,10.40
2022-09-21T00:52:03.098Z,10.40
2022-09-21T00:54:34.751Z,10.40
2022-09-21T00:57:03.478Z,10.40
2022-09-21T00:59:33.521Z,10.40
2022-09-21T01:02:03.217Z,10.40
2022-09-21T01:04:32.470Z,10.40
2022-09-21T01:07:05.676Z,10.30
2022-09-21T01:09:34.172Z,10.30
2022-09-21T01:12:19.438Z,10.20
2022-09-21T01:15:00.415Z,10.20
2022-09-21T01:17:40.877Z,10.20
2022-09-21T01:20:35.834Z,10.10
2022-09-21T01:23:17.829Z,10.10
2022-09-21T01:26:01.423Z,10.00
2022-09-21T01:28:39.480Z,9.90
2022-09-21T01:31:15.318Z,9.80
2022-09-21T01:33:48.837Z,9.80
2022-09-21T01:36:21.753Z,9.80
2022-09-21T01:38:52.181Z,9.70
2022-09-21T01:41:24.527Z,9.70
2022-09-21T01:43:56.770Z,9.60
2022-09-21T01:46:31.954Z,9.60
2022-09-21T01:49:05.960Z,9.50
2022-09-21T01:51:36.297Z,9.50
2022-09-21T01:54:10.205Z,9.50
2022-09-21T01:56:44.316Z,9.40
2022-09-21T01:59:18.904Z,9.40
2022-09-21T02:01:53.281Z,9.30
2022-09-21T02:04:21.566Z,9.30
2022-09-21T02:06:51.473Z,9.20
2022-09-21T02:09:20.470Z,9.20
2022-09-21T02:11:48.840Z,9.20
2022-09-21T02:14:21.260Z,9.10
2022-09-21T02:16:58.645Z,9.10
2022-09-21T02:19:35.942Z,9.10
2022-09-21T02:22:07.133Z,9.10
2022-09-21T02:24:42.265Z,9.00
2022-09-21T02:27:22.096Z,9.00
2022-09-21T02:29:54.071Z,9.00
2022-09-21T02:32:35.227Z,8.90
2022-09-21T02:35:09.262Z,8.90
2022-09-21T02:37:44.533Z,8.90
2022-09-21T02:40:20.803Z,8.90
2022-09-21T02:42:51.816Z,8.90
2022-09-21T02:45:23.432Z,8.80
2022-09-21T02:47:57.545Z,8.80
2022-09-21T02:50:33.085Z,8.80
2022-09-21T02:53:05.017Z,8.80
2022-09-21T02:55:34.400Z,8.80
2022-09-21T02:58:04.425Z,8.70
2022-09-21T03:00:32.652Z,8.70
2022-09-21T03:03:02.471Z,8.70
2022-09-21T03:05:30.884Z,8.70
2022-09-21T03:07:59.063Z,8.60
2022-09-21T03:10:27.252Z,8.60
2022-09-21T03:12:59.431Z,8.60
2022-09-21T03:15:28.055Z,8.60
2022-09-21T03:17:56.249Z,8.50
2022-09-21T03:20:26.000Z,8.50
2022-09-21T03:22:54.160Z,8.50
2022-09-21T03:25:22.967Z,8.50
2022-09-21T03:27:53.806Z,8.50
2022-09-21T03:30:22.141Z,8.40
2022-09-21T03:32:51.208Z,8.40
2022-09-21T03:35:19.480Z,8.30
2022-09-21T03:37:50.694Z,8.30
2022-09-21T03:40:19.593Z,8.30
2022-09-21T03:42:47.945Z,8.30
2022-09-21T03:45:16.498Z,8.20
2022-09-21T03:47:44.681Z,8.20
2022-09-21T03:50:13.191Z,8.20
2022-09-21T03:52:41.529Z,8.20
2022-09-21T03:55:11.638Z,8.10
2022-09-21T03:57:40.060Z,8.20
2022-09-21T04:00:10.679Z,8.10
2022-09-21T04:02:40.560Z,8.10
2022-09-21T04:05:10.160Z,8.10
2022-09-21T04:07:40.139Z,8.00
2022-09-21T04:10:13.025Z,8.00
2022-09-21T04:12:43.886Z,8.00
2022-09-21T04:15:14.009Z,8.00
2022-09-21T04:17:42.476Z,7.90
2022-09-21T04:20:10.972Z,7.90
2022-09-21T04:22:43.383Z,7.80
2022-09-21T04:25:13.860Z,7.80
2022-09-21T04:27:42.361Z,7.80
2022-09-21T04:30:13.047Z,7.70
2022-09-21T04:32:41.358Z,7.70
2022-09-21T04:35:10.605Z,7.70
2022-09-21T04:37:38.866Z,7.60
2022-09-21T04:40:08.323Z,7.60
2022-09-21T04:42:37.968Z,7.60
2022-09-21T04:45:06.869Z,7.60
2022-09-21T04:47:35.044Z,7.50
2022-09-21T04:50:03.245Z,7.50
2022-09-21T04:52:32.043Z,7.50
2022-09-21T04:55:00.245Z,7.50
2022-09-21T04:57:28.411Z,7.50
2022-09-21T04:59:58.024Z,7.50
2022-09-21T05:02:26.433Z,7.50
2022-09-21T05:04:54.628Z,7.40
2022-09-21T05:07:22.778Z,7.40
2022-09-21T05:10:04.718Z,7.40
2022-09-21T05:12:32.854Z,7.30
2022-09-21T05:15:02.488Z,7.30
2022-09-21T05:17:31.126Z,7.30
2022-09-21T05:19:59.362Z,7.30
2022-09-21T05:22:28.927Z,7.30
2022-09-21T05:24:57.175Z,7.30
2022-09-21T05:27:25.382Z,7.30
2022-09-21T05:29:54.073Z,7.30
2022-09-21T05:32:28.696Z,7.30
2022-09-21T05:35:08.676Z,7.30
2022-09-21T05:37:52.536Z,7.30
2022-09-21T05:40:21.683Z,7.30
2022-09-21T05:42:50.472Z,7.40
2022-09-21T05:45:21.175Z,7.50
2022-09-21T05:48:02.847Z,7.90
2022-09-21T05:50:54.203Z,8.60
2022-09-21T05:53:47.304Z,9.20
2022-09-21T05:56:25.596Z,9.80
2022-09-21T05:59:01.849Z,10.40
2022-09-21T06:01:40.247Z,10.80
2022-09-21T06:04:13.310Z,11.40
2022-09-21T06:06:41.504Z,11.60
2022-09-21T06:09:09.840Z,12.00
2022-09-21T06:11:38.159Z,12.20
2022-09-21T06:14:06.675Z,12.50
2022-09-21T06:16:42.606Z,12.90
2022-09-21T06:19:14.614Z,13.40
2022-09-21T06:21:42.781Z,13.80
2022-09-21T06:24:11.972Z,14.10
2022-09-21T06:26:40.121Z,14.30
2022-09-21T06:29:08.281Z,14.70
2022-09-21T06:31:36.667Z,15.20
2022-09-21T06:34:05.116Z,15.60
2022-09-21T06:36:34.736Z,16.20
2022-09-21T06:39:02.905Z,16.90
2022-09-21T06:41:31.099Z,17.50
2022-09-21T06:43:59.240Z,17.50
2022-09-21T06:46:27.425Z,17.40
2022-09-21T06:48:56.365Z,17.40
2022-09-21T06:51:24.519Z,17.70
2022-09-21T06:53:58.020Z,18.00
2022-09-21T06:56:27.125Z,18.40
2022-09-21T06:58:56.222Z,18.40
2022-09-21T07:01:24.763Z,18.50
2022-09-21T07:03:54.148Z,18.30
2022-09-21T07:06:22.529Z,18.90
2022-09-21T07:11:42.951Z,19.50
2022-09-21T07:14:11.152Z,20.30
2022-09-21T07:16:40.009Z,20.80
2022-09-21T07:19:12.044Z,21.10
2022-09-21T07:21:40.698Z,21.60
2022-09-21T07:24:12.375Z,22.00
2022-09-21T07:26:42.571Z,21.90
2022-09-21T07:29:10.767Z,22.60
2022-09-21T07:31:39.459Z,23.10
2022-09-21T07:34:07.747Z,23.10
2022-09-21T07:36:35.938Z,23.70
2022-09-21T07:39:05.024Z,24.20
2022-09-21T07:41:33.159Z,24.80
2022-09-21T07:44:03.251Z,25.50
2022-09-21T07:46:31.656Z,26.50
2022-09-21T07:48:59.860Z,27.40
2022-09-21T07:51:28.052Z,28.00
2022-09-21T07:53:57.847Z,28.80
2022-09-21T07:56:26.603Z,29.30
2022-09-21T07:59:06.029Z,29.40
2022-09-21T08:01:36.735Z,30.10
2022-09-21T08:04:06.199Z,30.60
2022-09-21T08:06:35.844Z,30.60
2022-09-21T08:09:05.453Z,31.00
2022-09-21T08:11:34.623Z,31.40
2022-09-21T08:14:05.005Z,31.70
2022-09-21T08:16:33.989Z,32.10
2022-09-21T08:19:04.576Z,32.30
2022-09-21T08:21:32.802Z,32.90
2022-09-21T08:24:00.980Z,32.90
2022-09-21T08:26:29.281Z,33.00
2022-09-21T08:28:58.862Z,33.20
2022-09-21T08:31:27.852Z,33.40
2022-09-21T08:33:57.683Z,33.50
2022-09-21T08:36:27.870Z,33.90
2022-09-21T08:38:57.014Z,33.80
2022-09-21T08:41:43.412Z,34.10
2022-09-21T08:44:15.192Z,34.00
2022-09-21T08:46:45.881Z,34.10
2022-09-21T08:49:18.668Z,34.20
2022-09-21T08:51:52.062Z,34.30
2022-09-21T08:54:29.458Z,34.70
2022-09-21T08:57:06.101Z,34.60
2022-09-21T08:59:35.578Z,34.40
2022-09-21T09:02:12.628Z,34.70
2022-09-21T09:04:54.161Z,34.80
2022-09-21T09:07:43.479Z,35.00
2022-09-21T09:10:24.461Z,35.30
2022-09-21T09:12:57.987Z,35.70
2022-09-21T09:15:59.347Z,35.60
2022-09-21T09:18:36.067Z,35.90
2022-09-21T09:21:08.578Z,35.70
2022-09-21T09:23:42.776Z,36.00
2022-09-21T09:26:16.868Z,36.40
2022-09-21T09:28:52.918Z,36.60
2022-09-21T09:31:25.862Z,36.50
2022-09-21T09:34:01.277Z,36.10
2022-09-21T09:36:56.592Z,35.70
2022-09-21T09:39:23.461Z,35.70
2022-09-21T09:42:22.843Z,36.10
2022-09-21T09:45:24.884Z,35.70
2022-09-21T09:48:07.862Z,36.20
2022-09-21T09:50:38.836Z,36.80
2022-09-21T09:53:12.135Z,36.90
2022-09-21T09:55:44.796Z,36.40
2022-09-21T09:58:20.541Z,36.20
2022-09-21T10:00:53.220Z,36.30
2022-09-21T10:03:24.005Z,35.90
2022-09-21T10:05:52.744Z,35.60
2022-09-21T10:08:43.145Z,35.90
2022-09-21T10:11:15.081Z,36.50
2022-09-21T10:13:44.944Z,36.80
2022-09-21T10:16:15.425Z,37.10
2022-09-21T10:18:49.951Z,37.40
2022-09-21T10:21:21.417Z,37.40
2022-09-21T10:23:51.453Z,37.40
2022-09-21T10:26:22.493Z,37.40
2022-09-21T10:28:58.705Z,37.60
2022-09-21T10:31:28.434Z,38.00
2022-09-21T10:34:08.709Z,38.20
2022-09-21T10:36:38.858Z,38.10
2022-09-21T10:39:25.579Z,38.00
2022-09-21T10:42:01.280Z,37.60
2022-09-21T10:44:37.102Z,37.00
2022-09-21T10:47:17.968Z,37.70
2022-09-21T10:49:50.327Z,38.10
2022-09-21T10:52:20.440Z,38.40
2022-09-21T10:54:52.852Z,37.50
2022-09-21T10:57:24.925Z,37.30
2022-09-21T10:59:53.309Z,36.70
2022-09-21T11:02:38.568Z,36.40
2022-09-21T11:05:15.604Z,36.10
2022-09-21T11:07:50.077Z,35.80
2022-09-21T11:10:25.679Z,36.00
2022-09-21T11:13:06.726Z,35.60
2022-09-21T11:15:45.937Z,35.30
2022-09-21T11:18:21.437Z,35.40
2022-09-21T11:20:53.966Z,35.50
2022-09-21T11:23:33.146Z,35.00
2022-09-21T11:26:08.357Z,34.90
2022-09-21T11:28:42.562Z,34.10
2022-09-21T11:31:29.071Z,34.50
2022-09-21T11:34:11.436Z,34.60
2022-09-21T11:36:53.308Z,34.50
2022-09-21T11:39:40.027Z,34.60
2022-09-21T11:42:20.463Z,35.50
2022-09-21T11:44:58.351Z,35.70
2022-09-21T11:47:45.310Z,35.30
2022-09-21T11:50:31.633Z,35.70
2022-09-21T11:53:13.035Z,35.90
2022-09-21T11:55:55.307Z,36.10
2022-09-21T11:58:29.685Z,36.60
2022-09-21T12:01:09.772Z,36.90
2022-09-21T12:03:57.018Z,37.00
2022-09-21T12:06:38.619Z,37.00
2022-09-21T12:09:27.323Z,37.10
2022-09-21T12:12:05.024Z,37.30
2022-09-21T12:14:40.329Z,37.20
2022-09-21T12:17:16.183Z,37.40
2022-09-21T12:19:51.092Z,37.50
2022-09-21T12:22:24.160Z,37.40
2022-09-21T12:24:55.704Z,36.90
2022-09-21T12:27:30.643Z,36.80
2022-09-21T12:30:03.165Z,36.40
2022-09-21T12:32:49.515Z,36.40
2022-09-21T12:35:25.673Z,36.50
2022-09-21T12:37:59.739Z,36.30
2022-09-21T12:40:38.106Z,36.20
2022-09-21T12:43:15.200Z,36.20
2022-09-21T12:45:47.235Z,36.00
2022-09-21T12:48:24.556Z,35.90
2022-09-21T12:50:57.501Z,35.70
2022-09-21T12:53:28.281Z,35.60
2022-09-21T12:56:03.666Z,35.80
2022-09-21T12:58:52.200Z,36.00
2022-09-21T13:01:30.088Z,36.10
2022-09-21T13:04:12.463Z,36.20
2022-09-21T13:06:58.663Z,36.60
2022-09-21T13:09:28.125Z,36.50
2022-09-21T13:11:59.171Z,36.50
2022-09-21T13:14:30.074Z,36.10
2022-09-21T13:17:02.841Z,35.30
2022-09-21T13:19:34.263Z,35.60
2022-09-21T13:22:20.051Z,36.20
2022-09-21T13:25:03.250Z,36.30
2022-09-21T13:28:04.301Z,36.40
2022-09-21T13:30:38.454Z,36.50
2022-09-21T13:33:39.081Z,36.60
2022-09-21T13:36:27.916Z,35.50
2022-09-21T13:39:20.527Z,35.40
2022-09-21T13:42:04.189Z,35.70
2022-09-21T13:44:43.116Z,35.70
2022-09-21T13:47:14.330Z,35.50
2022-09-21T13:49:50.917Z,35.00
2022-09-21T13:52:32.111Z,34.60
2022-09-21T13:55:04.203Z,33.60
2022-09-21T13:57:38.802Z,32.80
2022-09-21T14:00:28.118Z,32.50
2022-09-21T14:03:04.437Z,32.40
2022-09-21T14:05:37.032Z,32.40
2022-09-21T14:08:22.001Z,32.80
2022-09-21T14:10:54.061Z,32.60
2022-09-21T14:13:30.892Z,33.10
2022-09-21T14:16:34.117Z,33.20
2022-09-21T14:19:03.268Z,33.00
2022-09-21T14:21:31.913Z,32.90
2022-09-21T14:24:38.292Z,33.00
2022-09-21T14:27:17.681Z,32.90
2022-09-21T14:29:49.668Z,32.80
2022-09-21T14:32:23.385Z,32.40
2022-09-21T14:34:55.616Z,31.70
2022-09-21T14:37:32.179Z,31.80
2022-09-21T14:40:06.468Z,31.60
2022-09-21T14:42:34.974Z,31.10
2022-09-21T14:45:04.862Z,31.20
2022-09-21T14:47:57.218Z,30.90
2022-09-21T14:50:31.636Z,30.40
2022-09-21T14:53:14.635Z,30.30
2022-09-21T14:55:59.666Z,30.10
2022-09-21T14:58:45.078Z,30.40
2022-09-21T15:01:36.395Z,30.30
2022-09-21T15:04:24.551Z,29.80
2022-09-21T15:07:20.730Z,29.40
2022-09-21T15:10:23.821Z,29.30
2022-09-21T15:13:00.376Z,29.80
2022-09-21T15:15:41.456Z,30.20
2022-09-21T15:18:20.489Z,29.70
2022-09-21T15:21:01.333Z,29.40
2022-09-21T15:23:32.569Z,29.10
2022-09-21T15:26:04.243Z,28.80
2022-09-21T15:29:05.031Z,28.40
2022-09-21T15:31:32.749Z,28.30
2022-09-21T15:34:01.952Z,28.00
2022-09-21T15:36:34.116Z,27.70
2022-09-21T15:39:02.269Z,27.40
2022-09-21T15:41:42.968Z,26.50
2022-09-21T15:44:17.704Z,25.60
2022-09-21T15:46:49.582Z,24.90
2022-09-21T15:49:21.370Z,24.20
2022-09-21T15:51:56.599Z,23.50
2022-09-21T15:54:32.287Z,22.80
2022-09-21T15:57:05.956Z,22.20
2022-09-21T15:59:37.644Z,21.80
2022-09-21T16:02:17.505Z,21.40
2022-09-21T16:04:49.478Z,20.90
2022-09-21T16:07:27.580Z,20.50
2022-09-21T16:09:56.033Z,20.10
2022-09-21T16:12:40.671Z,19.80
2022-09-21T16:15:29.146Z,19.50
2022-09-21T16:18:01.530Z,19.30
2022-09-21T16:20:42.292Z,19.10
2022-09-21T16:23:18.934Z,19.10
2022-09-21T16:25:56.007Z,18.90
2022-09-21T16:28:30.816Z,18.80
2022-09-21T16:31:00.495Z,18.60
2022-09-21T16:33:40.988Z,18.50
2022-09-21T16:36:47.538Z,18.40
2022-09-21T16:39:17.732Z,18.30
2022-09-21T16:41:53.389Z,18.10
2022-09-21T16:44:25.622Z,18.00
2022-09-21T16:47:05.252Z,17.90
2022-09-21T16:49:35.695Z,17.70
2022-09-21T16:52:04.500Z,17.60
2022-09-21T16:54:32.829Z,17.40
2022-09-21T16:57:02.810Z,17.30
2022-09-21T16:59:33.282Z,17.20
2022-09-21T17:02:04.332Z,17.10
2022-09-21T17:04:35.166Z,16.90
2022-09-21T17:07:04.999Z,16.80
2022-09-21T17:09:35.508Z,16.80
2022-09-21T17:12:06.207Z,16.70
2022-09-21T17:14:36.118Z,16.50
2022-09-21T17:17:08.434Z,16.50
2022-09-21T17:19:38.251Z,16.40
2022-09-21T17:22:07.103Z,16.30
2022-09-21T17:24:50.215Z,16.20
2022-09-21T17:27:21.093Z,16.20
2022-09-21T17:29:49.893Z,16.10
2022-09-21T17:32:20.895Z,16.00
2022-09-21T17:34:56.800Z,15.90
2022-09-21T17:37:26.519Z,15.90
2022-09-21T17:39:54.863Z,15.80
2022-09-21T17:42:25.898Z,15.80
2022-09-21T17:45:12.873Z,15.70
2022-09-21T17:47:41.915Z,15.60
2022-09-21T17:50:24.172Z,15.50
2022-09-21T17:53:10.454Z,15.50
2022-09-21T17:55:39.770Z,15.40
2022-09-21T17:58:29.478Z,15.30
2022-09-21T18:01:02.557Z,15.10
2022-09-21T18:03:35.828Z,15.10
2022-09-21T18:06:06.491Z,15.00
2022-09-21T18:08:36.612Z,14.90
2022-09-21T18:11:15.358Z,14.80
2022-09-21T18:13:54.720Z,14.80
2022-09-21T18:16:35.514Z,14.70
2022-09-21T18:19:12.942Z,14.60
2022-09-21T18:21:50.636Z,14.60
2022-09-21T18:24:27.431Z,14.50
2022-09-21T18:26:59.152Z,14.50
2022-09-21T18:29:46.224Z,14.40
2022-09-21T18:32:35.201Z,14.40
2022-09-21T18:35:35.723Z,14.30
2022-09-21T18:38:18.834Z,14.30
2022-09-21T18:41:05.538Z,14.20
2022-09-21T18:43:50.813Z,14.10
2022-09-21T18:46:26.032Z,14.00
2022-09-21T18:49:01.263Z,13.90
2022-09-21T18:51:36.569Z,13.80
2022-09-21T18:54:06.815Z,13.80
2022-09-21T18:56:37.264Z,13.70
2022-09-21T18:59:07.131Z,13.60
2022-09-21T19:01:36.060Z,13.60
2022-09-21T19:04:05.159Z,13.50
2022-09-21T19:06:45.365Z,13.40
2022-09-21T19:09:32.273Z,13.40
2022-09-21T19:12:10.028Z,13.30
2022-09-21T19:14:47.090Z,13.30
2022-09-21T19:17:27.758Z,13.20
2022-09-21T19:20:12.402Z,13.10
2022-09-21T19:22:48.330Z,13.00
2022-09-21T19:25:30.167Z,13.00
2022-09-21T19:27:59.980Z,12.90
2022-09-21T19:30:29.935Z,12.80
2022-09-21T19:33:00.569Z,12.80
2022-09-21T19:35:30.811Z,12.70
2022-09-21T19:38:01.510Z,12.60
2022-09-21T19:40:33.986Z,12.60
2022-09-21T19:43:22.493Z,12.50
2022-09-21T19:46:05.490Z,12.40
2022-09-21T19:48:42.143Z,12.40
2022-09-21T19:51:17.634Z,12.30
2022-09-21T19:54:03.973Z,12.30
2022-09-21T19:56:55.399Z,12.20
2022-09-21T19:59:41.712Z,12.10
2022-09-21T20:02:14.156Z,12.00
2022-09-21T20:04:50.938Z,11.90
2022-09-21T20:07:26.844Z,11.80
2022-09-21T20:10:16.217Z,11.80
2022-09-21T20:12:53.989Z,11.80
2022-09-21T20:15:28.765Z,11.70
2022-09-21T20:18:03.074Z,11.60
2022-09-21T20:20:31.634Z,11.60
2022-09-21T20:23:00.476Z,11.50
2022-09-21T20:25:33.522Z,11.40
2022-09-21T20:28:04.036Z,11.40
2022-09-21T20:30:35.220Z,11.40
2022-09-21T20:33:06.879Z,11.30
2022-09-21T20:35:35.957Z,11.30
2022-09-21T20:38:04.724Z,11.30
2022-09-21T20:40:33.210Z,11.20
2022-09-21T20:43:03.202Z,11.20
2022-09-21T20:45:32.362Z,11.10
2022-09-21T20:48:13.174Z,11.10
2022-09-21T20:50:42.645Z,11.00
2022-09-21T20:53:11.283Z,10.90
2022-09-21T20:55:39.945Z,10.80
2022-09-21T20:58:11.989Z,10.80
2022-09-21T21:00:40.609Z,10.80
2022-09-21T21:03:08.814Z,10.70
2022-09-21T21:05:37.253Z,10.70
2022-09-21T21:08:05.736Z,10.70
2022-09-21T21:10:34.350Z,10.70
2022-09-21T21:13:02.689Z,10.60
2022-09-21T21:15:32.751Z,10.50
2022-09-21T21:18:00.918Z,10.50
2022-09-21T21:20:31.023Z,10.40
2022-09-21T21:22:59.195Z,10.40
2022-09-21T21:25:27.374Z,10.40
2022-09-21T21:27:58.252Z,10.30
2022-09-21T21:30:26.541Z,10.30
2022-09-21T21:32:56.899Z,10.20
2022-09-21T21:35:25.969Z,10.20
2022-09-21T21:37:54.161Z,10.10
2022-09-21T21:40:22.837Z,10.10
2022-09-21T21:42:51.035Z,10.10
2022-09-21T21:45:21.492Z,10.10
2022-09-21T21:47:49.729Z,10.00
2022-09-21T21:50:19.385Z,10.00
2022-09-21T21:52:47.544Z,9.90
2022-09-21T21:55:15.899Z,9.90
2022-09-21T21:57:44.134Z,9.80
2022-09-21T22:00:13.804Z,9.80
2022-09-21T22:02:42.031Z,9.80
2022-09-21T22:05:10.664Z,9.70
2022-09-21T22:07:40.950Z,9.70
2022-09-21T22:10:10.241Z,9.70
2022-09-21T22:12:39.046Z,9.70
2022-09-21T22:15:08.434Z,9.70
2022-09-21T22:17:36.609Z,9.60
2022-09-21T22:20:05.049Z,9.60
2022-09-21T22:22:33.266Z,9.60
2022-09-21T22:25:03.526Z,9.60
2022-09-21T22:27:31.704Z,9.60
2022-09-21T22:29:59.888Z,9.60
2022-09-21T22:32:28.171Z,9.60
2022-09-21T22:34:56.357Z,9.60
2022-09-21T22:37:25.448Z,9.50
2022-09-21T22:39:53.857Z,9.50
2022-09-21T22:42:23.649Z,9.50
2022-09-21T22:44:51.800Z,9.40
2022-09-21T22:47:20.008Z,9.40
2022-09-21T22:49:48.157Z,9.40
2022-09-21T22:52:16.390Z,9.40
2022-09-21T22:54:44.556Z,9.30
2022-09-21T22:57:12.738Z,9.30
2022-09-21T22:59:42.292Z,9.30
2022-09-21T23:02:10.507Z,9.20
2022-09-21T23:04:38.952Z,9.30
2022-09-21T23:07:07.120Z,9.20
2022-09-21T23:09:35.292Z,9.20
2022-09-21T23:12:03.816Z,9.20
2022-09-21T23:14:31.992Z,9.20
2022-09-21T23:17:01.517Z,9.20
2022-09-21T23:19:29.724Z,9.20
2022-09-21T23:21:57.880Z,9.20
2022-09-21T23:24:26.123Z,9.20
2022-09-21T23:26:54.275Z,9.20
2022-09-21T23:29:22.477Z,9.20
2022-09-21T23:31:50.683Z,9.20
2022-09-21T23:34:20.563Z,9.10
2022-09-21T23:36:48.732Z,9.10
2022-09-21T23:39:17.076Z,9.10
2022-09-21T23:41:45.508Z,9.10
2022-09-21T23:44:13.810Z,9.00
2022-09-21T23:46:42.859Z,9.00
2022-09-21T23:49:11.410Z,8.90
2022-09-21T23:51:41.445Z,9.00
2022-09-21T23:54:09.884Z,8.90
2022-09-21T23:56:38.382Z,8.90
2022-09-21T23:59:07.302Z,8.90
